Time;durP1;ratioP1;P1;durP2;ratioP2;P2;SDS_P1;SDS_P2;PMS_P1;PMS_P2;Temp;Humidity;BMP_temperature;BMP_pressure;BME280_temperature;BME280_humidity;BME280_pressure;Samples;Min_cycle;Max_cycle;Signal;HPM_P1;HPM_P2
2021/12/06 00:02:06;;;;;;;54.58;35.25;;;;;;;1.42;100.00;101020.63;4897849;29;20077;-86
2021/12/06 00:04:33;;;;;;;;;;;;;;;1.46;100.00;101019.34;4898525;29;20032;-85
2021/12/06 00:07:02;;;;;;;51.80;33.08;;;;;;;1.43;100.00;101003.63;4897386;29;19920;-84
2021/12/06 00:09:29;;;;;;;52.72;32.92;;;;;;;1.42;100.00;100991.22;4897872;29;20051;-86
2021/12/06 00:11:58;;;;;;;52.35;33.53;;;;;;;1.51;100.00;101009.88;4897459;29;20044;-87
2021/12/06 00:14:29;;;;;;;47.90;31.30;;;;;;;1.59;100.00;101017.13;4880713;29;20546;-84
2021/12/06 00:17:01;;;;;;;43.70;30.80;;;;;;;1.31;100.00;100969.06;4897413;29;20036;-85
2021/12/06 00:19:27;;;;;;;;;;;;;;;1.68;100.00;101029.63;4881078;29;20063;-84
2021/12/06 00:21:53;;;;;;;48.47;29.90;;;;;;;1.67;100.00;101041.31;4880728;29;19924;-85
2021/12/06 00:24:18;;;;;;;46.88;31.65;;;;;;;1.62;100.00;101024.03;4880246;29;20048;-85
2021/12/06 00:26:44;;;;;;;48.88;31.83;;;;;;;1.76;100.00;101042.22;4912095;29;20029;-85
2021/12/06 00:29:10;;;;;;;48.25;32.17;;;;;;;1.82;100.00;101043.47;4911875;29;20036;-85
2021/12/06 00:31:36;;;;;;;50.40;32.72;;;;;;;1.75;100.00;101025.31;4897440;29;20047;-85
2021/12/06 00:34:09;;;;;;;50.22;32.90;;;;;;;1.65;100.00;101008.50;4880454;29;20029;-86
2021/12/06 00:36:38;;;;;;;44.40;31.52;;;;;;;1.51;100.00;100980.47;4897407;29;20032;-86
2021/12/06 00:39:11;;;;;;;45.70;30.45;;;;;;;1.69;100.00;101007.22;4897249;29;20036;-85
2021/12/06 00:41:40;;;;;;;44.13;30.70;;;;;;;1.46;100.00;100964.06;4880551;29;20032;-85
2021/12/06 00:44:07;;;;;;;44.35;30.20;;;;;;;1.64;100.00;100998.81;4911730;29;20047;-86
2021/12/06 00:46:34;;;;;;;45.40;31.77;;;;;;;1.84;100.00;101028.06;4895595;29;20080;-85
2021/12/06 00:49:03;;;;;;;43.17;31.92;;;;;;;1.85;100.00;101021.75;4897044;29;20473;-85
2021/12/06 00:51:32;;;;;;;47.53;32.85;;;;;;;2.19;100.00;101067.34;4880453;29;20037;-85
2021/12/06 00:54:00;;;;;;;43.72;30.73;;;;;;;1.67;100.00;100985.13;4896985;29;20040;-85
2021/12/06 00:56:26;;;;;;;44.15;31.25;;;;;;;1.84;100.00;101012.03;4911452;29;20402;-85
2021/12/06 00:58:52;;;;;;;43.75;30.77;;;;;;;1.91;100.00;101026.47;4911268;29;20049;-85
2021/12/06 01:01:21;;;;;;;42.85;30.33;;;;;;;2.30;100.00;101089.53;4911423;29;20039;-85
2021/12/06 01:03:47;;;;;;;41.42;29.67;;;;;;;1.91;100.00;101032.66;4880344;29;20032;-85
2021/12/06 01:06:13;;;;;;;43.58;29.85;;;;;;;1.93;100.00;101038.72;4880332;29;20036;-85
2021/12/06 01:08:40;;;;;;;39.95;28.20;;;;;;;1.77;100.00;101008.28;4911418;29;20036;-86
2021/12/06 01:11:07;;;;;;;42.47;31.00;;;;;;;1.93;100.00;101027.16;4897107;29;20032;-86
2021/12/06 01:13:36;;;;;;;45.90;31.60;;;;;;;1.86;100.00;101021.59;4897442;29;20112;-85
2021/12/06 01:16:03;;;;;;;43.97;30.90;;;;;;;1.92;100.00;101034.34;4896468;29;20048;-85
2021/12/06 01:18:29;;;;;;;44.00;31.30;;;;;;;2.06;100.00;101043.66;4880256;29;20069;-86
2021/12/06 01:21:09;;;;;;;44.70;30.55;;;;;;;1.75;100.00;101003.91;4880149;29;20036;-85
2021/12/06 01:23:58;;;;;;;42.95;31.20;;;;;;;2.42;100.00;101110.56;4881305;29;20032;-85
2021/12/06 01:29:45;;;;;;;37.72;27.25;;;;;;;2.38;100.00;101105.66;4899435;29;20068;-85
2021/12/06 01:33:00;;;;;;;38.33;28.98;;;;;;;2.49;100.00;101115.28;4883532;29;20442;-86
2021/12/06 01:40:42;;;;;;;40.80;29.20;;;;;;;2.23;100.00;101083.94;4899180;29;20526;-86
2021/12/06 01:43:08;;;;;;;43.47;30.10;;;;;;;2.44;100.00;101129.16;4898666;29;20073;-85
2021/12/06 01:45:36;;;;;;;40.45;28.92;;;;;;;2.23;100.00;101081.25;4883030;29;20482;-85
2021/12/06 01:48:06;;;;;;;41.35;28.48;;;;;;;2.49;100.00;101126.81;4914433;29;20100;-86
2021/12/06 01:50:32;;;;;;;37.75;28.23;;;;;;;2.35;100.00;101103.28;4882765;29;20513;-85
2021/12/06 01:53:00;;;;;;;39.13;28.88;;;;;;;2.37;100.00;101103.97;4898676;29;20040;-85
2021/12/06 01:55:32;;;;;;;40.70;28.95;;;;;;;2.53;100.00;101127.38;4882901;29;20105;-85
2021/12/06 01:58:00;;;;;;;40.53;29.00;;;;;;;2.58;100.00;101147.34;4883307;29;20036;-85
2021/12/06 02:00:33;;;;;;;40.72;29.27;;;;;;;2.40;100.00;101100.97;4899533;29;20073;-86
2021/12/06 02:02:59;;;;;;;40.42;28.98;;;;;;;2.46;100.00;101122.59;4899901;29;20044;-86
2021/12/06 02:05:25;;;;;;;39.22;29.08;;;;;;;2.55;100.00;101128.03;4899809;29;20463;-86
2021/12/06 02:07:54;;;;;;;41.15;29.25;;;;;;;2.44;100.00;101097.84;4899224;29;20116;-85
2021/12/06 02:10:20;;;;;;;39.47;28.50;;;;;;;2.53;100.00;101128.19;4899551;29;20068;-85
2021/12/06 02:12:48;;;;;;;40.22;28.15;;;;;;;2.48;100.00;101113.59;4914151;29;20032;-85
2021/12/06 02:15:42;;;;;;;37.83;28.38;;;;;;;2.63;100.00;101139.66;4899383;29;20401;-85
2021/12/06 02:18:10;;;;;;;36.78;27.42;;;;;;;2.36;100.00;101103.16;4898294;29;20044;-86
2021/12/06 02:20:43;;;;;;;42.65;29.13;;;;;;;2.29;100.00;101099.41;4899245;29;20035;-86
2021/12/06 02:23:09;;;;;;;40.33;29.42;;;;;;;2.13;100.00;101075.13;4899540;29;20033;-86
2021/12/06 02:25:34;;;;;;;40.33;28.98;;;;;;;2.56;100.00;101152.00;4897800;29;20040;-86
2021/12/06 02:28:00;;;;;;;40.90;28.45;;;;;;;2.51;100.00;101143.59;4913587;29;20111;-86
2021/12/06 02:30:26;;;;;;;38.55;28.40;;;;;;;2.43;100.00;101127.44;4897962;29;20044;-86
2021/12/06 02:32:51;;;;;;;42.83;29.52;;;;;;;2.29;100.00;101112.78;4913889;29;20032;-86
2021/12/06 02:35:20;;;;;;;41.63;30.08;;;;;;;2.53;100.00;101143.44;4865921;29;20033;-86
2021/12/06 02:37:48;;;;;;;44.58;29.60;;;;;;;2.25;100.00;101093.50;4913743;29;20028;-86
2021/12/06 02:40:18;;;;;;;44.03;29.27;;;;;;;2.13;100.00;101077.81;4882040;29;20418;-86
2021/12/06 02:42:46;;;;;;;41.92;29.48;;;;;;;2.51;100.00;101143.59;4913268;29;20040;-86
2021/12/06 02:45:17;;;;;;;42.08;28.50;;;;;;;2.60;100.00;101171.28;4897602;29;20029;-85
2021/12/06 02:47:43;;;;;;;41.90;29.50;;;;;;;2.15;100.00;101090.06;4899064;29;20064;-86
2021/12/06 02:50:11;;;;;;;42.55;29.42;;;;;;;2.18;100.00;101107.66;4913407;29;20064;-85
2021/12/06 02:52:42;;;;;;;39.60;28.83;;;;;;;2.23;100.00;101121.41;4898956;29;20033;-85
2021/12/06 02:55:29;;;;;;;40.90;28.75;;;;;;;2.43;100.00;101155.06;4912981;29;20043;-86
2021/12/06 02:57:58;;;;;;;41.67;28.02;;;;;;;2.36;100.00;101135.28;4881954;29;20025;-85
2021/12/06 03:00:25;;;;;;;41.17;29.85;;;;;;;2.40;100.00;101138.47;4898291;29;20035;-85
2021/12/06 03:02:51;;;;;;;41.67;28.98;;;;;;;2.69;100.00;101193.59;4866443;29;20082;-85
2021/12/06 03:05:17;;;;;;;40.88;29.73;;;;;;;2.66;100.00;101180.53;4881805;29;20064;-85
2021/12/06 03:07:46;;;;;;;40.45;29.75;;;;;;;2.69;100.00;101190.94;4897412;29;20040;-85
2021/12/06 03:10:12;;;;;;;40.13;29.02;;;;;;;2.43;100.00;101146.19;4866926;29;20505;-85
2021/12/06 03:12:37;;;;;;;41.85;29.95;;;;;;;2.41;100.00;101143.69;4897274;29;20041;-86
2021/12/06 03:15:07;;;;;;;39.67;28.95;;;;;;;2.45;100.00;101150.41;4897260;29;20044;-86
2021/12/06 03:17:33;;;;;;;44.80;30.85;;;;;;;2.68;100.00;101187.41;4881112;29;20024;-86
2021/12/06 03:20:02;;;;;;;42.42;29.73;;;;;;;2.24;100.00;101126.66;4898380;29;20058;-86
2021/12/06 03:22:28;;;;;;;40.70;29.45;;;;;;;2.68;100.00;101191.94;4912701;29;20032;-86
2021/12/06 03:24:54;;;;;;;40.88;29.40;;;;;;;2.67;100.00;101193.75;4881873;29;20084;-86
2021/12/06 03:27:20;;;;;;;43.80;29.52;;;;;;;2.41;100.00;101146.34;4912787;29;20044;-86
2021/12/06 03:29:46;;;;;;;36.63;27.08;;;;;;;2.53;100.00;101170.22;4912798;29;20052;-86
2021/12/06 03:32:13;;;;;;;37.83;27.75;;;;;;;2.67;100.00;101193.75;4865956;29;20471;-86
2021/12/06 03:34:39;;;;;;;41.50;29.25;;;;;;;2.68;100.00;101186.59;4896577;29;20081;-86
2021/12/06 03:37:08;;;;;;;45.80;30.45;;;;;;;2.68;100.00;101192.78;4881354;29;20036;-86
2021/12/06 03:39:38;;;;;;;41.80;29.05;;;;;;;2.48;100.00;101162.66;4897891;29;20036;-86
2021/12/06 03:42:07;;;;;;;41.80;29.50;;;;;;;2.70;100.00;101193.47;4881150;29;20439;-86
2021/12/06 03:44:36;;;;;;;40.92;28.65;;;;;;;2.68;100.00;101192.78;4881212;29;20036;-86
2021/12/06 03:47:18;;;;;;;42.28;29.52;;;;;;;2.51;100.00;101169.53;4897356;29;20049;-86
2021/12/06 03:49:44;;;;;;;36.80;27.75;;;;;;;2.64;100.00;101194.06;4897635;29;20482;-86
2021/12/06 03:52:10;;;;;;;40.25;28.40;;;;;;;2.53;100.00;101184.44;4897507;29;20044;-86
2021/12/06 03:54:37;;;;;;;42.88;28.55;;;;;;;2.53;100.00;101179.09;4912439;29;20123;-86
2021/12/06 03:57:04;;;;;;;38.05;28.30;;;;;;;2.60;100.00;101204.28;4896377;29;20036;-86
2021/12/06 03:59:30;;;;;;;38.78;28.92;;;;;;;2.27;100.00;101147.75;4896268;29;20041;-86
2021/12/06 04:01:56;;;;;;;41.03;29.40;;;;;;;2.59;100.00;101202.59;4880711;29;20032;-86
2021/12/06 04:04:21;;;;;;;41.45;28.80;;;;;;;2.54;100.00;101188.81;4897498;29;20091;-85
2021/12/06 04:06:51;;;;;;;40.13;27.42;;;;;;;2.57;100.00;101198.38;4880916;29;20119;-86
2021/12/06 04:09:17;;;;;;;39.85;27.08;;;;;;;2.63;100.00;101212.00;4911855;29;20033;-85
2021/12/06 04:11:43;;;;;;;38.72;28.00;;;;;;;2.45;100.00;101200.44;4911785;29;20036;-85
2021/12/06 04:14:09;;;;;;;41.88;29.02;;;;;;;2.22;100.00;101162.59;4896226;29;20032;-86
2021/12/06 04:16:36;;;;;;;43.42;29.80;;;;;;;2.43;100.00;101213.16;4880665;29;20040;-86
2021/12/06 04:19:04;;;;;;;41.22;29.88;;;;;;;1.91;100.00;101120.13;4912007;29;20036;-86
2021/12/06 04:21:30;;;;;;;44.85;30.33;;;;;;;2.31;100.00;101184.94;4912000;29;20467;-86
2021/12/06 04:23:56;;;;;;;43.85;30.27;;;;;;;2.29;100.00;101182.41;4880627;29;20032;-87
2021/12/06 04:26:22;;;;;;;42.08;29.92;;;;;;;2.32;100.00;101182.09;4897318;29;20039;-85
2021/12/06 04:28:49;;;;;;;47.13;30.85;;;;;;;2.01;100.00;101126.25;4911515;29;20490;-85
2021/12/06 04:31:16;;;;;;;41.65;29.50;;;;;;;2.06;100.00;101147.19;4896433;29;20465;-86
2021/12/06 04:33:42;;;;;;;44.33;31.00;;;;;;;1.87;100.00;101124.94;4880766;29;20115;-86
2021/12/06 04:36:08;;;;;;;44.75;30.90;;;;;;;1.70;100.00;101112.41;4911880;29;20064;-85
2021/12/06 04:38:34;;;;;;;44.22;29.70;;;;;;;2.21;100.00;101217.13;4880582;29;20032;-86
2021/12/06 04:41:02;;;;;;;41.10;28.73;;;;;;;2.11;100.00;101219.84;4911835;29;20048;-86
2021/12/06 04:43:36;;;;;;;43.45;29.85;;;;;;;1.46;100.00;101137.00;4911801;29;20036;-85
2021/12/06 04:46:02;;;;;;;46.40;30.02;;;;;;;1.43;100.00;101148.84;4879967;29;20068;-86
2021/12/06 04:48:28;;;;;;;43.83;30.33;;;;;;;1.61;100.00;101188.16;4911543;29;20067;-86
2021/12/06 04:50:53;;;;;;;43.15;29.80;;;;;;;1.32;100.00;101160.56;4880793;29;20068;-86
2021/12/06 04:53:23;;;;;;;44.88;30.17;;;;;;;1.15;100.00;101151.50;4896863;29;20418;-86
2021/12/06 04:55:58;;;;;;;45.78;31.45;;;;;;;1.42;100.00;101210.50;4880482;29;20067;-86
2021/12/06 04:58:30;;;;;;;48.08;30.17;;;;;;;1.52;100.00;101235.38;4881192;29;20025;-86
2021/12/06 05:01:05;;;;;;;48.85;31.00;;;;;;;1.47;100.00;101246.50;4915387;29;20024;-86
2021/12/06 05:03:30;;;;;;;48.03;31.25;;;;;;;1.33;100.00;101230.91;4883715;29;20402;-86
2021/12/06 05:06:00;;;;;;;45.30;28.98;;;;;;;1.02;100.00;101185.72;4915391;29;20029;-86
2021/12/06 05:08:30;;;;;;;51.05;30.33;;;;;;;1.22;100.00;101240.78;4915066;29;20043;-86
2021/12/06 05:10:58;;;;;;;53.63;31.90;;;;;;;1.11;100.00;101222.28;4915023;29;20043;-86
2021/12/06 05:13:30;;;;;;;52.80;33.05;;;;;;;1.15;100.00;101233.50;4900480;29;20130;-86
2021/12/06 05:15:55;;;;;;;52.92;32.38;;;;;;;1.09;100.00;101242.94;4915193;29;20036;-86
2021/12/06 05:18:21;;;;;;;49.40;31.58;;;;;;;0.99;100.00;101236.75;4883841;29;20081;-86
2021/12/06 05:20:47;;;;;;;49.33;28.92;;;;;;;0.91;100.00;101242.81;4883144;29;20386;-86
2021/12/06 05:23:13;;;;;;;47.95;30.48;;;;;;;0.29;100.00;101171.03;4883624;29;20045;-86
2021/12/06 05:25:39;;;;;;;70.97;29.88;;;;;;;0.45;100.00;101215.03;4915049;29;20037;-86
2021/12/06 05:28:05;;;;;;;126.57;31.60;;;;;;;0.63;100.00;101252.56;4899093;29;20037;-86
2021/12/06 05:30:33;;;;;;;225.27;33.83;;;;;;;0.49;100.00;101229.78;4914634;29;20039;-85
2021/12/06 05:33:00;;;;;;;174.20;32.05;;;;;;;0.15;100.00;101172.31;4900021;29;20100;-86
2021/12/06 05:35:27;;;;;;;261.05;32.78;;;;;;;0.17;100.00;101183.66;4883433;29;20064;-86
2021/12/06 05:37:57;;;;;;;217.57;32.13;;;;;;;0.03;100.00;101160.09;4914100;29;20044;-86
2021/12/06 05:40:31;;;;;;;198.85;30.10;;;;;;;0.06;100.00;101167.81;4899667;29;20569;-85
2021/12/06 05:42:57;;;;;;;215.88;30.65;;;;;;;0.08;100.00;101171.16;4900406;29;20032;-86
2021/12/06 05:45:26;;;;;;;243.30;31.20;;;;;;;0.04;100.00;101164.41;4883350;29;20040;-86
2021/12/06 05:47:52;;;;;;;265.95;32.60;;;;;;;0.63;100.00;101257.88;4914038;29;20080;-86
2021/12/06 05:50:19;;;;;;;268.35;32.15;;;;;;;0.51;100.00;101238.50;4883191;29;20033;-86
2021/12/06 05:52:49;;;;;;;264.30;32.90;;;;;;;0.24;100.00;101183.13;4883129;29;20052;-86
2021/12/06 05:55:14;;;;;;;213.65;32.25;;;;;;;0.58;100.00;101238.78;4882960;29;20043;-86
2021/12/06 05:57:42;;;;;;;253.35;32.97;;;;;;;0.19;100.00;101172.84;4899776;29;20032;-85
2021/12/06 06:00:11;;;;;;;234.43;34.25;;;;;;;0.74;100.00;101259.56;4899729;29;20039;-86
2021/12/06 06:02:40;;;;;;;232.73;33.30;;;;;;;0.45;100.00;101205.19;4882983;29;20036;-86
2021/12/06 06:05:06;;;;;;;231.40;33.80;;;;;;;0.78;100.00;101260.97;4913922;29;20495;-86
2021/12/06 06:07:35;;;;;;;221.75;32.67;;;;;;;0.64;100.00;101232.88;4914178;29;20498;-86
2021/12/06 06:10:00;;;;;;;210.90;33.40;;;;;;;0.87;100.00;101278.81;4914011;29;20043;-86
2021/12/06 06:12:26;;;;;;;270.38;36.40;;;;;;;0.82;100.00;101276.59;4882532;29;20116;-86
2021/12/06 06:14:53;;;;;;;166.85;34.15;;;;;;;0.56;100.00;101235.41;4898391;29;20394;-86
2021/12/06 06:17:19;;;;;;;198.15;34.70;;;;;;;0.86;100.00;101287.84;4882696;29;20043;-88
2021/12/06 06:19:54;;;;;;;159.60;35.47;;;;;;;0.32;100.00;101201.94;4898446;29;20043;-85
2021/12/06 06:22:20;;;;;;;136.65;33.38;;;;;;;0.84;100.00;101290.66;4882600;29;20107;-89
2021/12/06 06:24:59;;;;;;;;;;;;;;;;;;;;;
2021/12/06 06:27:25;;;;;;;204.77;37.72;;;;;;;0.68;100.00;101269.84;4913998;29;20386;-91
2021/12/06 06:29:54;;;;;;;164.75;35.72;;;;;;;0.39;100.00;101220.94;4899414;29;20418;-90
2021/12/06 06:32:24;;;;;;;156.02;36.40;;;;;;;0.23;100.00;101187.63;4899069;29;20052;-90
2021/12/06 06:34:51;;;;;;;164.93;37.17;;;;;;;0.95;100.00;101300.34;4915405;29;20469;-90
2021/12/06 06:37:20;;;;;;;159.07;37.67;;;;;;;0.73;100.00;101265.91;4899789;29;20048;-91
2021/12/06 06:39:54;;;;;;;174.57;36.33;;;;;;;0.44;100.00;101218.66;4899890;29;20389;-91
2021/12/06 06:42:23;;;;;;;174.32;37.28;;;;;;;0.59;100.00;101221.75;4915627;29;20040;-88
2021/12/06 06:45:11;;;;;;;173.95;38.17;;;;;;;0.52;100.00;101205.47;4915313;29;20036;-92
2021/12/06 06:48:08;;;;;;;217.75;39.45;;;;;;;1.04;100.00;101298.66;4915492;29;20048;-91
2021/12/06 06:50:39;;;;;;;179.68;37.05;;;;;;;0.63;100.00;101225.84;4884691;29;20100;-91
2021/12/06 06:53:27;;;;;;;177.80;37.83;;;;;;;0.73;100.00;101247.22;4900239;29;20453;-92
2021/12/06 06:56:05;;;;;;;223.57;39.60;;;;;;;0.55;100.00;101210.53;4901164;29;20048;-90
2021/12/06 06:58:31;;;;;;;181.63;38.38;;;;;;;0.56;100.00;101208.69;4915329;29;20069;-90
2021/12/06 07:01:05;;;;;;;222.77;40.80;;;;;;;0.90;100.00;101270.56;4915375;29;20042;-90
2021/12/06 07:06:30;;;;;;;157.43;40.88;;;;;;;0.67;100.00;101217.41;4896655;29;20043;-90
2021/12/06 07:09:02;;;;;;;188.88;40.80;;;;;;;0.78;100.00;101228.91;4915332;29;20394;-90
2021/12/06 07:11:30;;;;;;;183.88;40.63;;;;;;;0.73;100.00;101212.50;4915301;29;20032;-91
2021/12/06 07:13:59;;;;;;;145.57;41.47;;;;;;;0.92;100.00;101239.19;4899233;29;20039;-91
2021/12/06 07:16:30;;;;;;;149.98;40.63;;;;;;;1.05;100.00;101258.44;4914890;29;20031;-90
2021/12/06 07:18:58;;;;;;;126.13;41.03;;;;;;;0.90;100.00;101224.28;4898707;29;20505;-90
2021/12/06 07:21:29;;;;;;;152.93;41.80;;;;;;;1.19;100.00;101278.50;4914067;29;20029;-91
2021/12/06 07:24:00;;;;;;;120.65;41.55;;;;;;;1.21;100.00;101281.03;4882950;29;20430;-91
2021/12/06 07:26:30;;;;;;;112.75;39.47;;;;;;;1.23;100.00;101285.25;4914689;29;20509;-90
2021/12/06 07:29:00;;;;;;;127.88;39.35;;;;;;;1.20;100.00;101284.72;4914741;29;20124;-90
2021/12/06 07:31:32;;;;;;;115.78;39.83;;;;;;;1.46;100.00;101326.88;4914698;29;20068;-91
2021/12/06 07:34:16;;;;;;;117.30;40.20;;;;;;;0.80;100.00;101233.16;4914391;29;20036;-91
2021/12/06 07:36:48;;;;;;;107.95;40.80;;;;;;;1.15;100.00;101285.16;4914260;29;20383;-91
2021/12/06 07:39:15;;;;;;;89.75;41.22;;;;;;;1.01;100.00;101242.81;4913712;29;20040;-89
2021/12/06 07:41:44;;;;;;;90.72;41.75;;;;;;;1.39;100.00;101313.25;4913041;29;20032;-91
2021/12/06 07:44:15;;;;;;;95.72;40.95;;;;;;;1.40;100.00;101304.22;4879765;29;20032;-90
2021/12/06 07:46:45;;;;;;;76.80;41.53;;;;;;;1.45;100.00;101295.75;4911598;29;20050;-89
2021/12/06 07:49:12;;;;;;;97.72;51.13;;;;;;;1.48;100.00;101285.63;4920194;29;20047;-91
2021/12/06 07:51:38;;;;;;;91.22;43.28;;;;;;;1.22;100.00;101243.47;4928867;29;20035;-91
2021/12/06 07:54:06;;;;;;;107.90;45.33;;;;;;;1.21;100.00;101240.94;4925188;29;20119;-90
2021/12/06 07:56:32;;;;;;;103.97;46.20;;;;;;;1.49;100.00;101284.66;4903535;29;20506;-89
2021/12/06 07:58:59;;;;;;;104.75;46.95;;;;;;;1.21;100.00;101227.56;4919078;29;20393;-90
2021/12/06 08:01:30;;;;;;;108.30;45.80;;;;;;;1.44;100.00;101262.84;4919164;29;20035;-91
2021/12/06 08:04:00;;;;;;;102.03;46.58;;;;;;;1.79;100.00;101298.78;4903909;29;20122;-91
2021/12/06 08:06:30;;;;;;;116.63;48.70;;;;;;;1.34;100.00;101221.91;4919265;29;20060;-89
2021/12/06 08:08:56;;;;;;;118.18;47.95;;;;;;;1.28;100.00;101203.78;4919498;29;20027;-89
2021/12/06 08:11:26;;;;;;;109.00;46.92;;;;;;;1.66;100.00;101272.34;4918696;29;20040;-89
2021/12/06 08:13:54;;;;;;;99.45;45.28;;;;;;;1.73;100.00;101267.25;4918872;29;20047;-89
2021/12/06 08:16:26;;;;;;;103.60;46.58;;;;;;;1.75;100.00;101270.63;4918517;29;20051;-89
2021/12/06 08:19:04;;;;;;;96.75;45.60;;;;;;;1.46;100.00;101219.91;4906904;29;20040;-90
2021/12/06 08:21:29;;;;;;;105.68;45.53;;;;;;;1.45;100.00;101216.41;4889177;29;20036;-89
2021/12/06 08:24:02;;;;;;;104.80;45.30;;;;;;;1.92;100.00;101301.94;4865948;29;20040;-90
2021/12/06 08:26:33;;;;;;;94.00;44.50;;;;;;;1.45;100.00;101215.53;4881319;29;20039;-88
2021/12/06 08:29:02;;;;;;;139.88;45.88;;;;;;;1.27;100.00;101202.09;4898571;29;20044;-90
2021/12/06 08:31:30;;;;;;;96.82;46.42;;;;;;;1.33;100.00;101229.09;4900347;29;20389;-90
2021/12/06 08:33:59;;;;;;;102.68;46.78;;;;;;;1.70;100.00;101289.78;4888107;29;20478;-90
2021/12/06 08:36:26;;;;;;;94.18;46.45;;;;;;;1.36;100.00;101236.84;4888905;29;20036;-90
2021/12/06 08:38:53;;;;;;;94.00;46.00;;;;;;;1.56;100.00;101271.53;4904012;29;20048;-90
2021/12/06 08:41:49;;;;;;;93.43;45.80;;;;;;;1.55;100.00;101278.72;4903560;29;20040;-90
2021/12/06 08:44:18;;;;;;;91.80;43.33;;;;;;;1.29;100.00;101245.59;4903409;29;20375;-90
2021/12/06 08:46:44;;;;;;;113.63;44.97;;;;;;;1.67;100.00;101308.81;4903255;29;20404;-90
2021/12/06 08:49:10;;;;;;;100.30;43.33;;;;;;;1.30;100.00;101271.31;4901083;29;20056;-90
2021/12/06 08:51:47;;;;;;;98.47;44.83;;;;;;;1.72;100.00;101330.59;4900774;29;20123;-90
2021/12/06 08:54:17;;;;;;;101.00;44.35;;;;;;;1.60;100.00;101313.06;4900901;29;20528;-90
2021/12/06 08:56:44;;;;;;;93.53;46.50;;;;;;;1.51;100.00;101290.69;4900876;29;20044;-90
2021/12/06 08:59:10;;;;;;;93.28;43.78;;;;;;;1.50;100.00;101291.66;4900305;29;20115;-90
2021/12/06 09:01:36;;;;;;;101.95;43.05;;;;;;;1.32;100.00;101262.16;4899863;29;20603;-89
2021/12/06 09:04:12;;;;;;;96.32;45.20;;;;;;;1.38;100.00;101269.59;4900096;29;20076;-92
2021/12/06 09:06:45;;;;;;;89.60;42.97;;;;;;;1.37;100.00;101257.25;4885423;29;20434;-90
2021/12/06 09:09:12;;;;;;;92.90;43.15;;;;;;;1.67;100.00;101299.91;4900229;29;20108;-90
2021/12/06 09:11:41;;;;;;;97.70;44.72;;;;;;;1.51;100.00;101280.00;4900377;29;20036;-90
2021/12/06 09:14:08;;;;;;;84.07;40.90;;;;;;;1.56;100.00;101288.41;4900141;29;20043;-90
2021/12/06 09:16:38;;;;;;;85.03;41.70;;;;;;;1.57;100.00;101287.44;4899847;29;20040;-90
2021/12/06 09:19:13;;;;;;;79.88;39.05;;;;;;;1.82;100.00;101335.09;4884541;29;20073;-90
2021/12/06 09:21:43;;;;;;;75.05;38.08;;;;;;;1.40;100.00;101259.63;4900308;29;20029;-89
2021/12/06 09:24:15;;;;;;;91.25;39.25;;;;;;;1.81;100.00;101331.56;4899997;29;20486;-89
2021/12/06 09:26:42;;;;;;;81.75;40.17;;;;;;;1.37;100.00;101264.41;4899855;29;20036;-90
2021/12/06 09:29:24;;;;;;;90.28;39.03;;;;;;;2.01;100.00;101363.59;4884212;29;20048;-90
2021/12/06 09:32:04;;;;;;;;;;;;;;;;;;;;;
2021/12/06 09:34:37;;;;;;;85.68;40.58;;;;;;;2.02;100.00;101363.50;4900580;29;20037;-90
2021/12/06 09:37:18;;;;;;;79.90;39.05;;;;;;;1.88;100.00;101332.66;4883451;29;20040;-90
2021/12/06 09:39:47;;;;;;;84.95;38.67;;;;;;;1.45;100.00;101259.19;4899206;29;20037;-90
2021/12/06 09:42:18;;;;;;;79.28;38.75;;;;;;;1.45;100.00;101272.56;4899665;29;20037;-90
2021/12/06 09:44:48;;;;;;;94.47;39.28;;;;;;;2.01;100.00;101361.78;4899263;29;20107;-90
2021/12/06 09:47:22;;;;;;;95.20;42.35;;;;;;;1.85;100.00;101321.44;4900629;29;20111;-89
2021/12/06 09:49:53;;;;;;;111.65;43.88;;;;;;;1.56;100.00;101276.88;4887016;29;20048;-90
2021/12/06 09:52:21;;;;;;;132.47;43.73;;;;;;;1.57;100.00;101282.09;4902388;29;20126;-90
2021/12/06 09:55:05;;;;;;;143.45;44.88;;;;;;;1.52;100.00;101267.47;4901510;29;20404;-89
2021/12/06 09:57:43;;;;;;;142.70;45.33;;;;;;;1.84;100.00;101333.13;4902493;29;20032;-90
2021/12/06 10:00:13;;;;;;;166.38;46.03;;;;;;;1.51;100.00;101281.84;4902084;29;20450;-90
2021/12/06 10:02:40;;;;;;;157.30;46.70;;;;;;;1.85;100.00;101327.63;4902213;29;20071;-90
2021/12/06 10:05:09;;;;;;;168.38;47.55;;;;;;;1.55;100.00;101270.69;4901696;29;20038;-89
2021/12/06 10:07:37;;;;;;;161.65;46.97;;;;;;;1.92;100.00;101327.88;4902477;29;20490;-90
2021/12/06 10:10:09;;;;;;;149.43;43.85;;;;;;;1.65;100.00;101283.19;4902075;29;20043;-90
2021/12/06 10:12:54;;;;;;;150.98;44.45;;;;;;;1.75;100.00;101294.69;4901631;29;20119;-90
2021/12/06 10:15:29;;;;;;;142.32;45.97;;;;;;;1.53;100.00;101256.59;4901706;29;20466;-88
2021/12/06 10:17:57;;;;;;;145.23;45.75;;;;;;;1.87;100.00;101306.06;4887520;29;20127;-90
2021/12/06 10:20:25;;;;;;;126.00;40.92;;;;;;;1.57;100.00;101257.19;4902452;29;20052;-90
2021/12/06 10:22:55;;;;;;;102.90;37.53;;;;;;;1.67;100.00;101251.78;4902877;29;20449;-90
2021/12/06 10:25:51;;;;;;;114.47;39.40;;;;;;;1.67;100.00;101275.84;4887486;29;20032;-90
2021/12/06 10:29:04;;;;;;;;;;;;;;;;;;;;;
2021/12/06 10:31:43;;;;;;;103.22;37.47;;;;;;;1.80;100.00;101281.75;4908314;29;20132;-89
2021/12/06 10:34:45;;;;;;;99.40;37.78;;;;;;;1.83;100.00;101289.47;4908324;29;20036;-91
2021/12/06 10:37:39;;;;;;;78.47;32.03;;;;;;;1.55;100.00;101238.59;4908863;29;20036;-90
2021/12/06 10:40:10;;;;;;;77.32;33.33;;;;;;;1.43;100.00;101241.59;4907192;29;20553;-90
2021/12/06 10:43:03;;;;;;;76.65;33.53;;;;;;;1.92;100.00;101322.53;4908137;29;20413;-90
2021/12/06 10:45:35;;;;;;;82.90;36.67;;;;;;;1.90;100.00;101319.13;4924400;29;20032;-90
2021/12/06 10:48:40;;;;;;;79.75;36.60;;;;;;;1.98;100.00;101308.56;4906825;29;20032;-90
2021/12/06 10:51:23;;;;;;;74.95;35.22;;;;;;;1.34;100.00;101205.88;4885139;29;20041;-90
2021/12/06 10:54:35;;;;;;;74.60;34.13;;;;;;;1.45;100.00;101219.06;4888341;29;20049;-90
2021/12/06 10:57:12;;;;;;;72.05;33.58;;;;;;;1.56;100.00;101232.25;4874176;29;20546;-92
2021/12/06 10:59:46;;;;;;;63.45;29.48;;;;;;;1.67;100.00;101233.91;4874717;29;20043;-90
2021/12/06 11:02:28;;;;;;;57.03;30.48;;;;;;;1.42;100.00;101179.25;4889520;29;20029;-90
2021/12/06 11:05:29;;;;;;;57.63;29.60;;;;;;;1.37;100.00;101168.16;4888666;29;20043;-91
2021/12/06 11:08:14;;;;;;;67.20;30.80;;;;;;;1.82;100.00;101269.03;4888618;29;20640;-90
2021/12/06 11:10:48;;;;;;;75.10;34.53;;;;;;;1.37;100.00;101200.22;4886313;29;20040;-91
2021/12/06 11:13:28;;;;;;;57.75;27.15;;;;;;;1.23;100.00;101175.66;4886964;29;20044;-91
2021/12/06 11:16:13;;;;;;;63.92;27.13;;;;;;;1.07;100.00;101182.63;4885230;29;20041;-91
2021/12/06 11:18:54;;;;;;;51.08;23.27;;;;;;;1.55;100.00;101257.31;4884414;29;20128;-91
2021/12/06 11:21:44;;;;;;;57.95;25.77;;;;;;;1.29;100.00;101216.19;4882329;29;20526;-90
2021/12/06 11:24:21;;;;;;;54.95;25.92;;;;;;;1.07;100.00;101167.41;4880695;29;20448;-90
2021/12/06 11:26:54;;;;;;;49.47;23.52;;;;;;;1.53;100.00;101216.50;4880338;29;20041;-90
2021/12/06 11:29:40;;;;;;;48.05;22.85;;;;;;;1.65;100.00;101221.66;4880367;29;20037;-89
2021/12/06 11:32:31;;;;;;;39.28;20.92;;;;;;;1.72;100.00;101220.91;4879116;29;20036;-92
2021/12/06 11:35:04;;;;;;;40.60;23.23;;;;;;;1.17;100.00;101168.22;4878676;29;20092;-89
2021/12/06 11:38:03;;;;;;;43.95;23.08;;;;;;;1.51;100.00;101228.34;4879251;29;20406;-90
2021/12/06 11:40:39;;;;;;;38.42;21.63;;;;;;;0.89;100.00;101135.28;4829638;29;20140;-90
2021/12/06 11:43:18;;;;;;;36.30;20.92;;;;;;;0.93;100.00;101130.47;4878930;29;20420;-90